Time;durP1;ratioP1;P1;durP2;ratioP2;P2;SDS_P1;SDS_P2;PMS_P1;PMS_P2;Temp;Humidity;BMP_temperature;BMP_pressure;BME280_temperature;BME280_humidity;BME280_pressure;Samples;Min_cycle;Max_cycle;Signal;HPM_P1;HPM_P2
2022/12/31 00:03:41;;;;;;;1.10;1.00;;;;;;;;;;4952036;28;20289;-80
2022/12/31 00:06:12;;;;;;;1.43;1.33;;;;;;;;;;4965462;28;20281;-79
2022/12/31 00:08:37;;;;;;;0.73;0.73;;;;;;;;;;4952135;28;20183;-80
2022/12/31 00:11:03;;;;;;;1.20;1.10;;;;;;;;;;4945205;29;20180;-79
2022/12/31 00:13:28;;;;;;;1.23;1.13;;;;;;;;;;4946506;28;20182;-80
2022/12/31 00:15:53;;;;;;;1.50;1.20;;;;;;;;;;4965203;28;20206;-79
2022/12/31 00:18:19;;;;;;;1.40;1.30;;;;;;;;;;4951580;29;20194;-80
2022/12/31 00:20:44;;;;;;;2.33;1.20;;;;;;;;;;4965463;28;20262;-80
2022/12/31 00:23:09;;;;;;;1.47;1.20;;;;;;;;;;4965436;28;20181;-80
2022/12/31 00:25:35;;;;;;;2.23;1.33;;;;;;;;;;4949071;28;20748;-80
2022/12/31 00:28:00;;;;;;;1.73;1.00;;;;;;;;;;4942854;28;20189;-80
2022/12/31 00:30:25;;;;;;;1.67;1.50;;;;;;;;;;4959112;28;20198;-80
2022/12/31 00:32:51;;;;;;;1.40;1.20;;;;;;;;;;4944196;28;20251;-80
2022/12/31 00:35:16;;;;;;;1.40;1.30;;;;;;;;;;4944668;28;20227;-80
2022/12/31 00:37:42;;;;;;;1.00;1.00;;;;;;;;;;4961887;28;20257;-80
2022/12/31 00:40:07;;;;;;;1.30;1.20;;;;;;;;;;4944191;28;20215;-80
2022/12/31 00:42:32;;;;;;;1.20;1.10;;;;;;;;;;4952086;28;20244;-80
2022/12/31 00:44:58;;;;;;;1.43;1.00;;;;;;;;;;4942899;28;20194;-80
2022/12/31 00:47:23;;;;;;;1.30;1.20;;;;;;;;;;4944760;28;20227;-80
2022/12/31 00:49:48;;;;;;;1.30;1.20;;;;;;;;;;4945039;28;20188;-80
2022/12/31 00:52:15;;;;;;;0.87;0.87;;;;;;;;;;4960604;28;20190;-80
2022/12/31 00:54:40;;;;;;;0.87;0.87;;;;;;;;;;4964575;28;20184;-80
2022/12/31 00:57:06;;;;;;;0.87;0.87;;;;;;;;;;4946213;28;20189;-80
2022/12/31 00:59:31;;;;;;;0.90;0.90;;;;;;;;;;4948652;28;20189;-80
2022/12/31 01:01:56;;;;;;;1.83;1.10;;;;;;;;;;4946515;28;20199;-80
2022/12/31 01:04:22;;;;;;;2.30;1.30;;;;;;;;;;4947831;28;20207;-79
2022/12/31 01:06:47;;;;;;;1.30;1.20;;;;;;;;;;4951658;28;20187;-80
2022/12/31 01:09:13;;;;;;;0.90;0.90;;;;;;;;;;4947029;28;20180;-80
2022/12/31 01:11:38;;;;;;;1.30;1.20;;;;;;;;;;4944218;28;20202;-80
2022/12/31 01:14:09;;;;;;;1.37;1.27;;;;;;;;;;4944681;28;20244;-80
2022/12/31 01:16:39;;;;;;;1.40;1.30;;;;;;;;;;4943273;28;20199;-80
2022/12/31 01:19:05;;;;;;;1.73;1.10;;;;;;;;;;4945279;28;20456;-80
2022/12/31 01:21:31;;;;;;;2.80;1.30;;;;;;;;;;4962671;28;20190;-80
2022/12/31 01:23:56;;;;;;;2.60;1.30;;;;;;;;;;4965937;28;20180;-80
2022/12/31 01:26:22;;;;;;;2.83;1.50;;;;;;;;;;4963802;28;20237;-80
2022/12/31 01:28:47;;;;;;;1.30;1.10;;;;;;;;;;4952725;28;20208;-80
2022/12/31 01:31:13;;;;;;;2.47;1.77;;;;;;;;;;4947878;28;20188;-80
2022/12/31 01:33:40;;;;;;;1.13;1.07;;;;;;;;;;4943726;28;20185;-80
2022/12/31 01:36:07;;;;;;;2.23;1.00;;;;;;;;;;4943119;28;20489;-80
2022/12/31 01:38:33;;;;;;;1.63;1.50;;;;;;;;;;4960231;28;20264;-80
2022/12/31 01:40:58;;;;;;;1.07;1.07;;;;;;;;;;4947629;28;20326;-80
2022/12/31 01:43:41;;;;;;;2.00;1.10;;;;;;;;;;4945479;28;20203;-80
2022/12/31 01:46:06;;;;;;;1.50;0.80;;;;;;;;;;4948387;28;20189;-80
2022/12/31 01:48:31;;;;;;;0.87;0.87;;;;;;;;;;4950543;28;20171;-80
2022/12/31 01:50:57;;;;;;;1.13;1.03;;;;;;;;;;4947619;28;20276;-80
2022/12/31 01:53:22;;;;;;;0.80;0.80;;;;;;;;;;4945114;28;20242;-80
2022/12/31 01:55:51;;;;;;;1.10;1.00;;;;;;;;;;4948640;28;20221;-80
2022/12/31 01:58:36;;;;;;;0.90;0.90;;;;;;;;;;4947879;28;20177;-80
2022/12/31 02:01:02;;;;;;;1.30;1.20;;;;;;;;;;4948241;28;20204;-80
2022/12/31 02:03:27;;;;;;;2.60;1.10;;;;;;;;;;4949232;28;20183;-80
2022/12/31 02:05:52;;;;;;;1.37;1.13;;;;;;;;;;4948362;28;20203;-80
2022/12/31 02:08:18;;;;;;;1.47;1.00;;;;;;;;;;4963593;28;20190;-80
2022/12/31 02:10:43;;;;;;;2.33;0.97;;;;;;;;;;4963156;28;20194;-80
2022/12/31 02:13:08;;;;;;;1.27;0.90;;;;;;;;;;4953556;28;20209;-80
2022/12/31 02:15:43;;;;;;;0.90;0.90;;;;;;;;;;4946390;28;20207;-80
2022/12/31 02:42:33;;;;;;;0.90;0.90;;;;;;;;;;4933272;29;20296;-80
2022/12/31 02:45:01;;;;;;;1.57;0.93;;;;;;;;;;4948926;28;20658;-80
2022/12/31 02:47:27;;;;;;;3.00;1.13;;;;;;;;;;4935668;29;20188;-80
2022/12/31 02:49:52;;;;;;;1.73;1.20;;;;;;;;;;4931928;29;20193;-80
2022/12/31 02:52:40;;;;;;;1.30;1.10;;;;;;;;;;4949177;28;20194;-80
2022/12/31 02:55:09;;;;;;;2.73;1.00;;;;;;;;;;4915295;29;20355;-81
2022/12/31 02:57:34;;;;;;;2.17;1.20;;;;;;;;;;4928949;29;20181;-80
2022/12/31 03:02:49;;;;;;;1.10;1.00;;;;;;;;;;4932018;29;20223;-80
2022/12/31 03:05:16;;;;;;;1.63;1.20;;;;;;;;;;4944772;28;20243;-79
2022/12/31 03:07:42;;;;;;;0.97;0.97;;;;;;;;;;4949183;28;20192;-80
2022/12/31 03:10:07;;;;;;;1.57;1.47;;;;;;;;;;4946531;28;20253;-80
2022/12/31 03:12:45;;;;;;;1.47;1.00;;;;;;;;;;4933771;29;20187;-80
2022/12/31 03:15:22;;;;;;;3.23;1.00;;;;;;;;;;4946055;28;20219;-80
2022/12/31 03:17:53;;;;;;;0.90;0.90;;;;;;;;;;4934061;29;20193;-80
2022/12/31 03:23:09;;;;;;;1.00;1.00;;;;;;;;;;4923491;29;20197;-80
2022/12/31 03:28:38;;;;;;;0.90;0.90;;;;;;;;;;4924793;29;20183;-80
2022/12/31 03:31:04;;;;;;;0.93;0.93;;;;;;;;;;4928891;29;20184;-80
2022/12/31 03:33:31;;;;;;;1.53;1.33;;;;;;;;;;4947331;28;20248;-80
2022/12/31 03:35:56;;;;;;;2.27;1.33;;;;;;;;;;4930818;29;20225;-80
2022/12/31 03:38:21;;;;;;;1.10;1.07;;;;;;;;;;4931395;29;20184;-80
2022/12/31 03:40:48;;;;;;;1.30;1.20;;;;;;;;;;4935907;29;20227;-80
2022/12/31 03:43:32;;;;;;;1.93;1.20;;;;;;;;;;4950973;28;20184;-80
2022/12/31 03:46:00;;;;;;;1.27;1.07;;;;;;;;;;4957928;28;20197;-80
2022/12/31 03:48:40;;;;;;;1.70;1.30;;;;;;;;;;4948239;28;20220;-80
2022/12/31 03:51:05;;;;;;;0.97;0.97;;;;;;;;;;4948494;28;20201;-80
2022/12/31 03:53:30;;;;;;;2.10;2.00;;;;;;;;;;4965962;28;20180;-80
2022/12/31 03:55:59;;;;;;;3.23;1.40;;;;;;;;;;4950497;28;20213;-80
2022/12/31 03:58:24;;;;;;;2.23;2.00;;;;;;;;;;4950117;28;20183;-79
2022/12/31 04:00:49;;;;;;;2.60;2.10;;;;;;;;;;4951582;28;20212;-80
2022/12/31 05:59:04;;;;;;;2.80;2.30;;;;;;;;;;4854327;29;20215;-81
2022/12/31 06:01:30;;;;;;;1.73;1.30;;;;;;;;;;4258168;29;21271;-82
2022/12/31 06:03:55;;;;;;;1.53;1.43;;;;;;;;;;4226326;29;20284;-81
2022/12/31 06:06:20;;;;;;;2.03;1.33;;;;;;;;;;4486416;28;20225;-80
2022/12/31 06:08:49;;;;;;;1.40;1.30;;;;;;;;;;4961602;28;20195;-80
2022/12/31 06:11:14;;;;;;;1.63;1.53;;;;;;;;;;4953830;28;20215;-80
2022/12/31 06:13:39;;;;;;;1.80;1.70;;;;;;;;;;4955049;28;20185;-80
2022/12/31 06:16:06;;;;;;;2.30;1.63;;;;;;;;;;4953400;28;20228;-80
2022/12/31 06:18:31;;;;;;;2.30;2.10;;;;;;;;;;4954830;28;20188;-80
2022/12/31 06:20:59;;;;;;;1.50;1.40;;;;;;;;;;4957435;28;20184;-80
2022/12/31 06:23:24;;;;;;;1.80;1.70;;;;;;;;;;4973580;28;20258;-81
2022/12/31 06:25:50;;;;;;;2.30;2.13;;;;;;;;;;4955434;28;20776;-80
2022/12/31 06:28:15;;;;;;;2.60;1.50;;;;;;;;;;4958048;28;20303;-80
2022/12/31 06:30:40;;;;;;;1.87;1.77;;;;;;;;;;4947884;28;20231;-80
2022/12/31 06:33:05;;;;;;;1.57;1.47;;;;;;;;;;4956320;28;20183;-80
2022/12/31 06:35:31;;;;;;;2.20;2.03;;;;;;;;;;4955377;28;20200;-80
2022/12/31 06:37:56;;;;;;;1.63;1.53;;;;;;;;;;4951101;28;20184;-81
2022/12/31 06:40:21;;;;;;;5.30;3.00;;;;;;;;;;4952563;28;20724;-80
2022/12/31 06:42:46;;;;;;;2.27;2.10;;;;;;;;;;4958441;28;20181;-80
2022/12/31 06:45:11;;;;;;;1.50;1.40;;;;;;;;;;4971916;28;20208;-81
2022/12/31 06:47:37;;;;;;;1.80;1.70;;;;;;;;;;4949938;28;20189;-80
2022/12/31 06:50:02;;;;;;;5.43;3.10;;;;;;;;;;4957002;29;20193;-80
2022/12/31 06:52:27;;;;;;;1.90;1.60;;;;;;;;;;4957391;28;20191;-80
2022/12/31 06:54:52;;;;;;;2.17;1.97;;;;;;;;;;4971390;28;20190;-81
2022/12/31 06:57:18;;;;;;;1.40;1.30;;;;;;;;;;4956440;28;20184;-81
2022/12/31 06:59:43;;;;;;;1.77;1.63;;;;;;;;;;4957070;28;20181;-80
2022/12/31 07:02:08;;;;;;;1.57;1.47;;;;;;;;;;4955947;28;20177;-80
2022/12/31 07:04:45;;;;;;;2.13;1.67;;;;;;;;;;4952297;28;20200;-81
2022/12/31 07:07:16;;;;;;;1.87;1.20;;;;;;;;;;4951612;28;20229;-80
2022/12/31 07:09:42;;;;;;;2.23;1.53;;;;;;;;;;4956467;28;20191;-80
2022/12/31 07:12:10;;;;;;;1.80;1.70;;;;;;;;;;4956521;29;20225;-81
2022/12/31 07:14:38;;;;;;;2.53;2.30;;;;;;;;;;4959712;28;20202;-80
2022/12/31 07:17:07;;;;;;;1.50;1.40;;;;;;;;;;4952310;29;20189;-80
2022/12/31 07:19:43;;;;;;;1.40;1.30;;;;;;;;;;4973935;28;20262;-80
2022/12/31 07:22:12;;;;;;;1.53;1.43;;;;;;;;;;4952812;29;20386;-81
2022/12/31 07:24:37;;;;;;;1.50;1.40;;;;;;;;;;4965855;28;20185;-80
2022/12/31 07:27:05;;;;;;;2.13;1.40;;;;;;;;;;4961022;28;20212;-81
2022/12/31 07:29:33;;;;;;;1.13;1.10;;;;;;;;;;4962804;28;20292;-80
2022/12/31 07:31:59;;;;;;;2.73;1.30;;;;;;;;;;4967481;28;20180;-80
2022/12/31 07:34:31;;;;;;;1.73;1.33;;;;;;;;;;4966790;28;20264;-81
2022/12/31 07:37:01;;;;;;;1.40;1.30;;;;;;;;;;4949096;28;20316;-80
2022/12/31 07:39:33;;;;;;;1.67;1.40;;;;;;;;;;4945652;28;20252;-80
2022/12/31 07:42:10;;;;;;;1.60;1.50;;;;;;;;;;4949799;28;20216;-80
2022/12/31 07:44:39;;;;;;;1.70;1.60;;;;;;;;;;4969096;28;20337;-80
2022/12/31 07:47:04;;;;;;;1.57;1.47;;;;;;;;;;4952940;28;20192;-80
2022/12/31 07:49:31;;;;;;;3.03;1.33;;;;;;;;;;4957205;28;20197;-80
2022/12/31 07:51:57;;;;;;;1.30;1.20;;;;;;;;;;4953181;28;20203;-80
2022/12/31 07:54:22;;;;;;;1.63;1.53;;;;;;;;;;4944368;28;20191;-81
2022/12/31 07:56:48;;;;;;;1.70;1.60;;;;;;;;;;4953063;28;20482;-80
2022/12/31 07:59:26;;;;;;;1.60;1.50;;;;;;;;;;4943528;28;20189;-81
2022/12/31 08:01:51;;;;;;;3.90;1.83;;;;;;;;;;4949592;29;20232;-80
2022/12/31 08:04:23;;;;;;;1.67;1.33;;;;;;;;;;4950446;28;20204;-80
2022/12/31 08:07:00;;;;;;;1.73;1.63;;;;;;;;;;4963213;28;20241;-80
2022/12/31 08:09:26;;;;;;;2.30;2.10;;;;;;;;;;4948325;28;20226;-80
2022/12/31 08:11:51;;;;;;;1.90;1.80;;;;;;;;;;4949523;28;20216;-80
2022/12/31 08:14:17;;;;;;;3.03;1.80;;;;;;;;;;4946119;28;20204;-80
2022/12/31 08:16:42;;;;;;;3.23;3.03;;;;;;;;;;4961497;28;20267;-80
2022/12/31 08:19:15;;;;;;;3.00;2.80;;;;;;;;;;4949668;29;20177;-81
2022/12/31 08:21:53;;;;;;;3.50;3.30;;;;;;;;;;4950909;29;20245;-81
2022/12/31 08:24:25;;;;;;;1.10;1.00;;;;;;;;;;4949037;28;20179;-80
2022/12/31 08:26:59;;;;;;;2.43;2.23;;;;;;;;;;4947541;28;20187;-80
2022/12/31 08:29:40;;;;;;;3.77;1.50;;;;;;;;;;4966540;28;20260;-80
2022/12/31 08:32:08;;;;;;;1.80;1.70;;;;;;;;;;4952220;28;20279;-80
2022/12/31 08:34:52;;;;;;;3.23;2.70;;;;;;;;;;4960920;28;20245;-80
2022/12/31 08:37:26;;;;;;;2.90;2.70;;;;;;;;;;4954783;28;20239;-80
2022/12/31 08:40:00;;;;;;;2.30;2.20;;;;;;;;;;4946796;28;20419;-80
2022/12/31 08:42:34;;;;;;;2.23;2.03;;;;;;;;;;4949539;28;20222;-81
2022/12/31 08:45:18;;;;;;;3.00;2.80;;;;;;;;;;4963503;28;20196;-80
2022/12/31 08:47:52;;;;;;;1.10;1.00;;;;;;;;;;4951389;29;20189;-80
2022/12/31 08:50:18;;;;;;;2.37;2.17;;;;;;;;;;4949516;29;20200;-80
2022/12/31 08:52:43;;;;;;;2.07;1.97;;;;;;;;;;4966072;28;20175;-80
2022/12/31 08:55:13;;;;;;;1.97;1.50;;;;;;;;;;4965673;28;20198;-80
2022/12/31 08:57:43;;;;;;;2.27;2.07;;;;;;;;;;4950552;28;20188;-80
2022/12/31 09:00:17;;;;;;;2.30;2.10;;;;;;;;;;4948783;28;20180;-81
2022/12/31 09:03:01;;;;;;;2.83;2.57;;;;;;;;;;4968842;28;20285;-81
2022/12/31 09:05:45;;;;;;;1.53;1.43;;;;;;;;;;4946007;28;20189;-80
2022/12/31 09:08:29;;;;;;;1.20;1.10;;;;;;;;;;4913837;29;20220;-80
2022/12/31 09:11:17;;;;;;;1.43;1.20;;;;;;;;;;4925267;29;20188;-81
2022/12/31 09:14:01;;;;;;;4.63;1.33;;;;;;;;;;4911765;29;20183;-81
2022/12/31 09:16:30;;;;;;;3.03;1.43;;;;;;;;;;4907102;29;20269;-81
2022/12/31 09:18:56;;;;;;;1.30;1.20;;;;;;;;;;4911225;29;20229;-81
2022/12/31 09:21:21;;;;;;;1.50;1.40;;;;;;;;;;4913997;29;20217;-81
2022/12/31 09:23:46;;;;;;;1.30;1.20;;;;;;;;;;4915946;29;20190;-81
2022/12/31 09:26:24;;;;;;;1.37;1.27;;;;;;;;;;4915578;29;20185;-81
2022/12/31 09:28:49;;;;;;;1.97;1.00;;;;;;;;;;4918900;29;20189;-81
2022/12/31 09:31:20;;;;;;;2.47;1.83;;;;;;;;;;4912910;29;20197;-81
2022/12/31 09:33:51;;;;;;;1.13;1.03;;;;;;;;;;4918994;29;20225;-81
2022/12/31 09:36:20;;;;;;;1.43;1.30;;;;;;;;;;4914799;29;20511;-80
2022/12/31 09:39:05;;;;;;;1.50;1.13;;;;;;;;;;4911287;29;20179;-81
2022/12/31 09:41:46;;;;;;;1.20;1.10;;;;;;;;;;4927526;29;20190;-81
2022/12/31 09:44:30;;;;;;;2.43;1.23;;;;;;;;;;4915257;29;20277;-81
2022/12/31 09:47:07;;;;;;;2.20;1.40;;;;;;;;;;4921652;29;20189;-81
2022/12/31 09:49:45;;;;;;;2.43;1.30;;;;;;;;;;4910373;29;20199;-81
2022/12/31 09:52:24;;;;;;;1.37;1.27;;;;;;;;;;4930117;29;20179;-81
2022/12/31 09:54:59;;;;;;;1.30;1.20;;;;;;;;;;4921787;29;20367;-81
2022/12/31 09:57:30;;;;;;;1.30;1.20;;;;;;;;;;4918405;29;20180;-81
2022/12/31 10:00:16;;;;;;;1.37;1.27;;;;;;;;;;4925789;29;20510;-81
2022/12/31 10:02:41;;;;;;;2.73;1.30;;;;;;;;;;4925433;29;20266;-81
2022/12/31 10:05:22;;;;;;;1.90;0.90;;;;;;;;;;4913990;29;20290;-81
2022/12/31 10:08:05;;;;;;;1.40;1.20;;;;;;;;;;4941777;28;20284;-81
2022/12/31 10:10:38;;;;;;;1.20;1.10;;;;;;;;;;4947885;28;20166;-80
2022/12/31 10:13:14;;;;;;;1.50;1.40;;;;;;;;;;4949589;29;20192;-81
2022/12/31 10:15:40;;;;;;;1.40;1.20;;;;;;;;;;4950013;28;20208;-81
2022/12/31 10:18:15;;;;;;;1.20;1.10;;;;;;;;;;4950000;29;20227;-81
2022/12/31 10:20:59;;;;;;;5.50;1.23;;;;;;;;;;4947951;29;20260;-81
2022/12/31 10:23:44;;;;;;;0.97;0.97;;;;;;;;;;4963475;28;20186;-81
2022/12/31 10:26:16;;;;;;;2.63;1.13;;;;;;;;;;4946766;29;20213;-81
2022/12/31 10:28:50;;;;;;;1.27;1.17;;;;;;;;;;4949117;29;20208;-81
2022/12/31 10:31:28;;;;;;;1.10;1.00;;;;;;;;;;4947715;29;20193;-81
2022/12/31 10:33:56;;;;;;;1.27;1.17;;;;;;;;;;4949688;29;20189;-81
2022/12/31 10:36:22;;;;;;;2.20;2.00;;;;;;;;;;4948901;29;20213;-81
2022/12/31 10:38:55;;;;;;;1.10;1.00;;;;;;;;;;4949832;29;20177;-81
2022/12/31 10:41:35;;;;;;;1.37;1.27;;;;;;;;;;4949604;29;20186;-81
2022/12/31 10:44:03;;;;;;;1.50;1.23;;;;;;;;;;4963782;28;20190;-81
2022/12/31 10:46:47;;;;;;;1.57;1.17;;;;;;;;;;4949306;29;20260;-81
2022/12/31 10:49:42;;;;;;;1.50;1.40;;;;;;;;;;4962569;28;20199;-81
2022/12/31 10:52:18;;;;;;;2.00;1.30;;;;;;;;;;4953619;29;20305;-82
2022/12/31 10:54:47;;;;;;;1.20;1.10;;;;;;;;;;4968736;28;20172;-81
2022/12/31 10:57:31;;;;;;;3.53;1.13;;;;;;;;;;4953173;29;20209;-82
2022/12/31 11:00:16;;;;;;;1.27;1.17;;;;;;;;;;4950930;28;20182;-81
2022/12/31 11:03:01;;;;;;;2.53;1.07;;;;;;;;;;4949375;29;20209;-82
2022/12/31 11:05:45;;;;;;;0.90;0.90;;;;;;;;;;4954850;28;20214;-81
2022/12/31 11:08:34;;;;;;;2.27;1.10;;;;;;;;;;4913479;29;20207;-81
2022/12/31 11:11:18;;;;;;;1.03;1.03;;;;;;;;;;4930377;29;20191;-81
2022/12/31 11:14:02;;;;;;;1.50;1.40;;;;;;;;;;4914947;29;20195;-81
2022/12/31 11:16:38;;;;;;;1.40;1.30;;;;;;;;;;4908893;29;20192;-81
2022/12/31 11:19:13;;;;;;;1.40;1.30;;;;;;;;;;4930057;29;20198;-81
2022/12/31 11:21:51;;;;;;;1.20;1.10;;;;;;;;;;4926669;29;20219;-81
2022/12/31 11:24:17;;;;;;;2.07;1.17;;;;;;;;;;4914050;29;20188;-81
2022/12/31 11:27:01;;;;;;;1.03;0.90;;;;;;;;;;4916317;29;20176;-82
2022/12/31 11:29:42;;;;;;;1.43;1.33;;;;;;;;;;4911400;29;20233;-81
2022/12/31 11:32:10;;;;;;;1.40;1.30;;;;;;;;;;4912647;29;20192;-81
2022/12/31 11:34:48;;;;;;;1.33;1.23;;;;;;;;;;4912648;29;20201;-82
2022/12/31 11:37:28;;;;;;;1.40;1.30;;;;;;;;;;4914001;29;20215;-81
2022/12/31 11:39:53;;;;;;;1.87;1.20;;;;;;;;;;4914626;29;20183;-81
2022/12/31 11:42:24;;;;;;;0.93;0.93;;;;;;;;;;4930025;29;20181;-81
2022/12/31 11:44:59;;;;;;;0.90;0.90;;;;;;;;;;4913538;29;20197;-82
2022/12/31 11:47:28;;;;;;;1.20;1.10;;;;;;;;;;4929612;29;20228;-82
2022/12/31 11:49:53;;;;;;;2.80;1.40;;;;;;;;;;4911082;29;20184;-81
2022/12/31 11:52:44;;;;;;;2.67;1.10;;;;;;;;;;4926993;29;20280;-82
2022/12/31 11:55:28;;;;;;;1.10;1.00;;;;;;;;;;4909924;29;20191;-81
2022/12/31 11:57:57;;;;;;;2.00;1.03;;;;;;;;;;4927772;29;20176;-81
2022/12/31 12:00:24;;;;;;;1.17;1.07;;;;;;;;;;4913509;29;20187;-81
2022/12/31 12:02:52;;;;;;;1.77;1.10;;;;;;;;;;4913688;29;20183;-82
2022/12/31 12:05:19;;;;;;;1.10;1.10;;;;;;;;;;4913710;29;20269;-82
2022/12/31 12:07:45;;;;;;;1.20;1.10;;;;;;;;;;4946424;29;20280;-82
2022/12/31 12:10:15;;;;;;;0.83;0.83;;;;;;;;;;4967738;28;20208;-81
2022/12/31 12:12:41;;;;;;;1.73;1.10;;;;;;;;;;4955152;28;20235;-82
2022/12/31 12:15:07;;;;;;;1.30;1.17;;;;;;;;;;4958208;28;20193;-82
2022/12/31 12:17:33;;;;;;;1.17;1.07;;;;;;;;;;4953187;28;20195;-82
2022/12/31 12:20:04;;;;;;;1.10;1.00;;;;;;;;;;4952280;28;20184;-82
2022/12/31 12:22:29;;;;;;;1.47;1.27;;;;;;;;;;4950825;28;20201;-80
2022/12/31 12:25:02;;;;;;;0.90;0.90;;;;;;;;;;4958398;28;20211;-82
2022/12/31 12:27:28;;;;;;;1.20;1.10;;;;;;;;;;4953238;28;20177;-81
2022/12/31 12:29:53;;;;;;;1.57;1.00;;;;;;;;;;4952434;28;20185;-82
2022/12/31 12:32:20;;;;;;;2.53;1.00;;;;;;;;;;4951005;29;20184;-82
2022/12/31 12:34:46;;;;;;;2.43;1.17;;;;;;;;;;4953221;28;20262;-82
2022/12/31 12:37:23;;;;;;;2.67;1.30;;;;;;;;;;4949838;28;20228;-82
2022/12/31 12:40:02;;;;;;;1.17;1.00;;;;;;;;;;4955708;28;20184;-82
2022/12/31 12:42:28;;;;;;;2.47;1.33;;;;;;;;;;4948537;28;20185;-82
2022/12/31 12:45:05;;;;;;;1.27;1.17;;;;;;;;;;4956081;28;20183;-82
2022/12/31 12:47:30;;;;;;;1.70;1.10;;;;;;;;;;4953458;28;20187;-82
2022/12/31 12:49:55;;;;;;;1.13;0.90;;;;;;;;;;4956534;28;20189;-82
2022/12/31 12:52:21;;;;;;;1.17;1.13;;;;;;;;;;4952681;28;20179;-82
2022/12/31 12:54:52;;;;;;;1.17;1.03;;;;;;;;;;4956650;28;20195;-82
2022/12/31 12:57:17;;;;;;;1.67;0.90;;;;;;;;;;4951091;29;20212;-82
2022/12/31 12:59:48;;;;;;;1.50;1.00;;;;;;;;;;4956138;28;20190;-82
2022/12/31 13:02:19;;;;;;;0.90;0.90;;;;;;;;;;4956389;28;20181;-82
2022/12/31 13:04:54;;;;;;;6.00;1.10;;;;;;;;;;4949713;28;20174;-82
2022/12/31 13:07:28;;;;;;;1.17;1.00;;;;;;;;;;4964668;28;20232;-81
2022/12/31 13:10:06;;;;;;;2.33;1.03;;;;;;;;;;4944756;28;20185;-81
2022/12/31 13:12:39;;;;;;;2.20;1.07;;;;;;;;;;4971586;28;20199;-82
2022/12/31 13:15:05;;;;;;;1.20;1.10;;;;;;;;;;4956591;28;20186;-82
2022/12/31 13:17:50;;;;;;;1.23;0.90;;;;;;;;;;4952429;28;20187;-81
2022/12/31 13:20:24;;;;;;;1.40;0.80;;;;;;;;;;4947094;28;20187;-82
2022/12/31 13:22:54;;;;;;;1.20;1.10;;;;;;;;;;4971152;28;20174;-82
2022/12/31 13:25:31;;;;;;;0.83;0.83;;;;;;;;;;4950760;28;20202;-82
2022/12/31 13:27:59;;;;;;;1.90;1.00;;;;;;;;;;4968943;28;20191;-82
2022/12/31 13:30:42;;;;;;;2.37;1.60;;;;;;;;;;4952675;28;20188;-82
2022/12/31 13:33:19;;;;;;;0.80;0.80;;;;;;;;;;4954401;28;20277;-82
2022/12/31 13:35:44;;;;;;;0.83;0.70;;;;;;;;;;4972683;28;20214;-82
2022/12/31 13:38:21;;;;;;;0.77;0.77;;;;;;;;;;4952865;28;20176;-82
2022/12/31 13:40:55;;;;;;;1.07;0.90;;;;;;;;;;4953763;28;20186;-81
2022/12/31 13:43:33;;;;;;;0.70;0.70;;;;;;;;;;4964351;28;20179;-81
2022/12/31 13:46:07;;;;;;;0.70;0.70;;;;;;;;;;4968261;28;20209;-82
2022/12/31 13:48:41;;;;;;;0.80;0.80;;;;;;;;;;4951411;28;20178;-82
2022/12/31 13:51:10;;;;;;;0.97;0.90;;;;;;;;;;4955957;28;20195;-82
2022/12/31 13:53:39;;;;;;;1.00;0.97;;;;;;;;;;4957061;28;20185;-82
2022/12/31 13:56:11;;;;;;;0.93;0.93;;;;;;;;;;4948724;28;20261;-82
2022/12/31 13:58:49;;;;;;;0.73;0.73;;;;;;;;;;4964285;28;20194;-82
2022/12/31 14:01:17;;;;;;;0.70;0.70;;;;;;;;;;4949660;29;20182;-81
2022/12/31 14:03:45;;;;;;;0.83;0.83;;;;;;;;;;4969673;28;20204;-81
2022/12/31 14:06:20;;;;;;;0.90;0.90;;;;;;;;;;4949820;28;20238;-81
2022/12/31 14:08:45;;;;;;;0.83;0.83;;;;;;;;;;4954478;28;20266;-82
2022/12/31 14:11:30;;;;;;;1.00;0.87;;;;;;;;;;4950636;28;20279;-82
2022/12/31 14:14:05;;;;;;;1.30;0.90;;;;;;;;;;4965770;28;20304;-82
2022/12/31 14:16:40;;;;;;;1.03;1.03;;;;;;;;;;4961854;28;20227;-82
2022/12/31 14:19:17;;;;;;;1.03;0.90;;;;;;;;;;4960588;28;20203;-82
2022/12/31 14:21:46;;;;;;;1.63;1.17;;;;;;;;;;4956414;28;20169;-81
2022/12/31 14:24:11;;;;;;;0.87;0.80;;;;;;;;;;4960545;28;20525;-81
2022/12/31 14:26:39;;;;;;;2.73;0.90;;;;;;;;;;4960902;28;20179;-82
2022/12/31 14:29:04;;;;;;;1.63;1.53;;;;;;;;;;4956362;28;20275;-82
2022/12/31 14:31:37;;;;;;;2.10;1.20;;;;;;;;;;4958524;28;20259;-82
2022/12/31 14:34:21;;;;;;;2.40;2.20;;;;;;;;;;4955323;28;20227;-81
2022/12/31 14:37:03;;;;;;;1.37;1.23;;;;;;;;;;4953424;29;20239;-81
2022/12/31 14:39:31;;;;;;;1.83;1.20;;;;;;;;;;4953499;29;20227;-82
2022/12/31 14:42:06;;;;;;;0.93;0.93;;;;;;;;;;4953247;29;20226;-82
2022/12/31 14:44:57;;;;;;;1.23;1.07;;;;;;;;;;4968546;28;20174;-82
2022/12/31 14:47:31;;;;;;;1.30;1.27;;;;;;;;;;4951890;28;20226;-82
2022/12/31 14:50:19;;;;;;;2.47;2.37;;;;;;;;;;4951922;29;20180;-82
2022/12/31 14:52:50;;;;;;;1.60;1.50;;;;;;;;;;4948300;29;20250;-81
2022/12/31 14:55:23;;;;;;;1.17;1.00;;;;;;;;;;4952447;29;20185;-81
2022/12/31 14:57:48;;;;;;;1.67;1.40;;;;;;;;;;4955762;28;20188;-82
2022/12/31 15:00:20;;;;;;;1.37;1.27;;;;;;;;;;4962665;28;20191;-82
2022/12/31 15:02:49;;;;;;;1.70;1.60;;;;;;;;;;4955395;28;20218;-82
2022/12/31 15:05:16;;;;;;;1.57;1.47;;;;;;;;;;4957075;28;20203;-82
2022/12/31 15:07:41;;;;;;;3.57;3.27;;;;;;;;;;4951300;28;20232;-82
2022/12/31 15:10:21;;;;;;;5.40;5.00;;;;;;;;;;4969059;28;20185;-82
2022/12/31 15:13:05;;;;;;;2.60;2.40;;;;;;;;;;4950687;29;20215;-81
2022/12/31 15:15:33;;;;;;;3.67;3.47;;;;;;;;;;4954652;28;20244;-81
2022/12/31 15:17:58;;;;;;;3.23;3.00;;;;;;;;;;4962988;28;20276;-81
2022/12/31 15:20:36;;;;;;;3.43;3.13;;;;;;;;;;4950966;28;20265;-81
2022/12/31 15:23:01;;;;;;;4.63;4.33;;;;;;;;;;4952669;28;20230;-81
2022/12/31 15:25:31;;;;;;;1.60;1.50;;;;;;;;;;4952415;29;20175;-81
2022/12/31 15:27:58;;;;;;;1.60;1.17;;;;;;;;;;4963105;28;20183;-82
2022/12/31 15:30:38;;;;;;;1.33;1.00;;;;;;;;;;4952194;29;20292;-81
2022/12/31 15:33:08;;;;;;;1.50;1.40;;;;;;;;;;4965133;28;20215;-81
2022/12/31 15:35:45;;;;;;;2.07;1.07;;;;;;;;;;4950053;28;20274;-82
2022/12/31 15:38:13;;;;;;;1.87;1.60;;;;;;;;;;4952168;29;20292;-81
2022/12/31 15:40:49;;;;;;;1.50;1.13;;;;;;;;;;4950409;28;20182;-82
2022/12/31 15:43:23;;;;;;;1.00;0.93;;;;;;;;;;4967876;28;20245;-81
2022/12/31 15:45:51;;;;;;;1.70;1.30;;;;;;;;;;4957070;28;20197;-81
2022/12/31 15:48:20;;;;;;;1.00;1.00;;;;;;;;;;4954809;28;20191;-81
2022/12/31 15:50:48;;;;;;;2.13;1.30;;;;;;;;;;4951850;28;20207;-82
2022/12/31 15:53:23;;;;;;;1.40;1.30;;;;;;;;;;4956282;28;20184;-82
2022/12/31 15:55:49;;;;;;;2.17;1.17;;;;;;;;;;4951477;28;20214;-82
2022/12/31 15:58:26;;;;;;;1.30;1.00;;;;;;;;;;4967981;28;20187;-81
2022/12/31 16:00:55;;;;;;;2.07;0.80;;;;;;;;;;4965585;28;20182;-81
2022/12/31 16:03:21;;;;;;;1.77;0.90;;;;;;;;;;4951899;28;20244;-81
2022/12/31 16:05:47;;;;;;;1.03;0.93;;;;;;;;;;4950931;29;20206;-82
2022/12/31 16:08:16;;;;;;;1.33;1.23;;;;;;;;;;4945888;28;20185;-82
2022/12/31 16:10:42;;;;;;;1.43;1.30;;;;;;;;;;4949908;28;20209;-81
2022/12/31 16:13:16;;;;;;;1.40;1.30;;;;;;;;;;4951053;28;20197;-82
2022/12/31 16:15:41;;;;;;;0.80;0.80;;;;;;;;;;4953580;28;20193;-81
2022/12/31 16:18:09;;;;;;;1.20;1.10;;;;;;;;;;4951281;29;20236;-81
2022/12/31 16:20:39;;;;;;;0.80;0.80;;;;;;;;;;4950672;29;20184;-81
2022/12/31 16:23:21;;;;;;;0.73;0.63;;;;;;;;;;4968044;28;20242;-81
2022/12/31 16:25:47;;;;;;;0.73;0.73;;;;;;;;;;4948609;28;21029;-81
2022/12/31 16:28:17;;;;;;;0.80;0.80;;;;;;;;;;4949886;28;20495;-81
2022/12/31 16:30:42;;;;;;;1.73;0.83;;;;;;;;;;4967317;28;20257;-81
2022/12/31 16:33:11;;;;;;;1.20;0.87;;;;;;;;;;4945252;28;20217;-81
2022/12/31 16:35:36;;;;;;;1.20;1.10;;;;;;;;;;4951645;28;20198;-81
2022/12/31 16:38:12;;;;;;;1.53;1.03;;;;;;;;;;4951591;28;20188;-81
2022/12/31 16:40:38;;;;;;;1.43;1.30;;;;;;;;;;4966500;28;20165;-81
2022/12/31 16:43:03;;;;;;;1.40;1.30;;;;;;;;;;4949670;29;20178;-81
2022/12/31 16:45:29;;;;;;;1.23;1.13;;;;;;;;;;4950062;29;20171;-81
2022/12/31 16:47:55;;;;;;;1.60;1.10;;;;;;;;;;4946479;28;20195;-81
2022/12/31 16:50:21;;;;;;;1.43;1.33;;;;;;;;;;4967480;28;20230;-81
2022/12/31 16:52:54;;;;;;;1.03;0.90;;;;;;;;;;4953990;28;20218;-82
2022/12/31 16:55:22;;;;;;;1.10;0.93;;;;;;;;;;4964938;28;20282;-81
2022/12/31 16:57:59;;;;;;;1.10;1.00;;;;;;;;;;4953870;28;20189;-81
2022/12/31 17:00:25;;;;;;;13.33;11.93;;;;;;;;;;4952407;28;20174;-82
2022/12/31 17:02:57;;;;;;;1.67;1.57;;;;;;;;;;4954580;28;20182;-81
2022/12/31 17:05:24;;;;;;;4.60;4.10;;;;;;;;;;4963855;28;20175;-82
2022/12/31 17:07:49;;;;;;;1.57;1.47;;;;;;;;;;4954010;28;20261;-81
2022/12/31 17:10:14;;;;;;;3.00;1.43;;;;;;;;;;4966760;28;20250;-81
2022/12/31 17:12:41;;;;;;;1.40;0.87;;;;;;;;;;4953413;28;20194;-81
2022/12/31 17:15:15;;;;;;;3.90;2.53;;;;;;;;;;4952355;28;20182;-81
2022/12/31 17:17:40;;;;;;;1.90;1.60;;;;;;;;;;4951345;28;20245;-81
2022/12/31 17:20:08;;;;;;;1.30;1.20;;;;;;;;;;4949846;29;20179;-81
2022/12/31 17:22:40;;;;;;;0.93;0.93;;;;;;;;;;4959852;28;20187;-82
2022/12/31 17:25:07;;;;;;;0.80;0.80;;;;;;;;;;4956053;28;20194;-82
2022/12/31 17:27:33;;;;;;;1.37;1.00;;;;;;;;;;4951785;28;20275;-81
2022/12/31 17:30:20;;;;;;;0.90;0.90;;;;;;;;;;4951714;28;20188;-81
2022/12/31 17:32:48;;;;;;;0.90;0.90;;;;;;;;;;4954046;28;20187;-81
2022/12/31 17:35:40;;;;;;;1.50;1.40;;;;;;;;;;4950994;28;20209;-81